Wray, Colorado
Current Conditions -  °F | °C
As of 11:55 PM on Wednesday 26 Nov 2014 (Local Time) from K2V5 Reporting Station
Clear Clear  
Wind Chill: 17°   Ceiling: Unl
Heat Index: 25°   Visibility: 10mi
Dew Point: 23°   Wind: 7mph
Humidity: 94%   Direction: 180°S
Pressure: 30.31"   Gusts: NA
Location:  40.08°N, 102.22°W
Report Text: K2V5 270655Z AUTO 18006KT 10SM CLR M04/M05 A3031 RMK AO2 T10401048
Loading
Personal Weather Stations






























Interactive Weather Map New forecast layout! Learn more

10-Day Weather Forecast

Advertisements
Track Severe Weather on mobile